createdAt,value
2022-08-21T00:00:10.295Z,69.41
2022-08-21T00:01:17.971Z,69.62
2022-08-21T00:02:25.085Z,69.29
2022-08-21T00:03:27.510Z,69.85
2022-08-21T00:04:31.040Z,69.86
2022-08-21T00:05:36.439Z,69.70
2022-08-21T00:06:40.277Z,69.76
2022-08-21T00:07:42.426Z,69.37
2022-08-21T00:08:45.813Z,69.69
2022-08-21T00:09:48.301Z,69.59
2022-08-21T00:10:52.234Z,69.90
2022-08-21T00:11:54.400Z,69.79
2022-08-21T00:12:57.411Z,69.61
2022-08-21T00:14:00.446Z,69.25
2022-08-21T00:15:03.593Z,69.17
2022-08-21T00:16:07.296Z,69.54
2022-08-21T00:17:10.417Z,69.32
2022-08-21T00:18:14.057Z,69.67
2022-08-21T00:19:17.116Z,69.70
2022-08-21T00:20:19.581Z,69.33
2022-08-21T00:21:23.263Z,69.12
2022-08-21T00:22:25.331Z,69.39
2022-08-21T00:23:28.254Z,69.36
2022-08-21T00:24:30.238Z,69.46
2022-08-21T00:25:33.344Z,69.68
2022-08-21T00:26:35.556Z,69.30
2022-08-21T00:27:43.234Z,69.57
2022-08-21T00:28:46.639Z,69.28
2022-08-21T00:29:49.815Z,69.42
2022-08-21T00:30:51.926Z,69.95
2022-08-21T00:31:55.536Z,69.35
2022-08-21T00:32:58.830Z,69.06
2022-08-21T00:34:03.690Z,69.23
2022-08-21T00:35:06.654Z,69.48
2022-08-21T00:36:10.268Z,69.28
2022-08-21T00:37:12.716Z,68.98
2022-08-21T00:38:15.911Z,69.76
2022-08-21T00:39:17.921Z,69.00
2022-08-21T00:40:24.351Z,69.89
2022-08-21T00:41:37.346Z,69.23
2022-08-21T00:42:41.788Z,69.40
2022-08-21T00:43:44.841Z,69.44
2022-08-21T00:44:49.156Z,69.68
2022-08-21T00:45:54.280Z,69.32
2022-08-21T00:46:56.172Z,69.25
2022-08-21T00:47:59.561Z,69.55
2022-08-21T00:49:03.510Z,69.37
2022-08-21T00:50:09.591Z,69.12
2022-08-21T00:51:24.138Z,69.68
2022-08-21T00:52:29.803Z,69.06
2022-08-21T00:53:33.630Z,69.49
2022-08-21T00:54:36.456Z,68.93
2022-08-21T00:55:43.032Z,69.10
2022-08-21T00:56:45.053Z,69.29
2022-08-21T00:57:53.026Z,68.80
2022-08-21T00:58:56.731Z,69.14
2022-08-21T01:00:03.378Z,69.24
2022-08-21T01:01:08.788Z,68.84
2022-08-21T01:02:12.081Z,69.14
2022-08-21T01:03:17.099Z,69.52
2022-08-21T01:04:22.496Z,69.24
2022-08-21T01:05:25.672Z,69.45
2022-08-21T01:06:28.038Z,68.77
2022-08-21T01:07:31.235Z,69.04
2022-08-21T01:08:34.040Z,69.47
2022-08-21T01:09:38.623Z,68.98
2022-08-21T01:10:41.313Z,68.93
2022-08-21T01:11:44.873Z,69.10
2022-08-21T01:12:46.946Z,69.24
2022-08-21T01:13:50.226Z,69.22
2022-08-21T01:14:52.798Z,69.02
2022-08-21T01:15:58.548Z,69.12
2022-08-21T01:17:04.199Z,69.28
2022-08-21T01:18:12.035Z,68.75
2022-08-21T01:19:14.808Z,68.76
2022-08-21T01:20:19.562Z,68.99
2022-08-21T01:21:28.011Z,69.37
2022-08-21T01:22:31.699Z,68.46
2022-08-21T01:23:35.039Z,69.24
2022-08-21T01:24:38.561Z,68.85
2022-08-21T01:25:40.550Z,69.10
2022-08-21T01:26:44.110Z,68.83
2022-08-21T01:27:46.175Z,68.98
2022-08-21T01:28:54.491Z,68.92
2022-08-21T01:30:05.535Z,68.81
2022-08-21T01:31:11.800Z,68.70
2022-08-21T01:32:18.575Z,68.75
2022-08-21T01:33:24.437Z,68.74
2022-08-21T01:34:26.357Z,68.63
2022-08-21T01:35:29.427Z,68.44
2022-08-21T01:36:33.683Z,68.70
2022-08-21T01:37:36.811Z,68.95
2022-08-21T01:38:39.138Z,68.32
2022-08-21T01:39:43.306Z,69.24
2022-08-21T01:40:45.609Z,68.40
2022-08-21T01:41:49.736Z,68.96
2022-08-21T01:42:52.148Z,68.84
2022-08-21T01:43:55.361Z,68.98
2022-08-21T01:44:57.545Z,68.68
2022-08-21T01:46:00.679Z,68.34
2022-08-21T01:47:07.025Z,68.34
2022-08-21T01:48:09.958Z,68.79
2022-08-21T01:49:11.911Z,68.42
2022-08-21T01:50:18.981Z,68.50
2022-08-21T01:51:20.939Z,68.34
2022-08-21T01:52:25.450Z,69.04
2022-08-21T01:53:33.319Z,68.44
2022-08-21T01:54:37.263Z,68.55
2022-08-21T01:55:39.203Z,68.12
2022-08-21T01:56:46.333Z,68.33
2022-08-21T01:57:49.425Z,68.79
2022-08-21T01:58:52.422Z,68.36
2022-08-21T01:59:54.899Z,68.72
2022-08-21T02:00:58.034Z,68.88
2022-08-21T02:02:00.025Z,68.41
2022-08-21T02:03:03.199Z,68.19
2022-08-21T02:04:05.171Z,68.12
2022-08-21T02:05:10.283Z,68.15
2022-08-21T02:06:16.066Z,68.56
2022-08-21T02:07:19.610Z,68.25
2022-08-21T02:08:24.228Z,68.03
2022-08-21T02:09:27.719Z,68.09
2022-08-21T02:10:32.532Z,68.20
2022-08-21T02:11:35.642Z,68.61
2022-08-21T02:12:37.663Z,68.63
2022-08-21T02:13:40.814Z,68.05
2022-08-21T02:14:42.983Z,68.27
2022-08-21T02:15:45.964Z,68.64
2022-08-21T02:16:48.105Z,68.02
2022-08-21T02:17:54.138Z,68.59
2022-08-21T02:18:56.170Z,68.52
2022-08-21T02:19:59.388Z,68.60
2022-08-21T02:21:01.545Z,68.18
2022-08-21T02:22:05.158Z,68.37
2022-08-21T02:23:09.844Z,68.33
2022-08-21T02:24:14.635Z,68.40
2022-08-21T02:25:17.069Z,67.92
2022-08-21T02:26:20.315Z,68.31
2022-08-21T02:27:26.586Z,68.17
2022-08-21T02:28:30.678Z,68.34
2022-08-21T02:29:32.632Z,68.39
2022-08-21T02:30:38.937Z,68.40
2022-08-21T02:31:40.869Z,67.89
2022-08-21T02:32:44.065Z,68.08
2022-08-21T02:33:46.203Z,68.19
2022-08-21T02:34:49.787Z,68.35
2022-08-21T02:35:53.031Z,68.46
2022-08-21T02:36:59.327Z,67.95
2022-08-21T02:38:04.446Z,67.93
2022-08-21T02:39:07.748Z,67.85
2022-08-21T02:40:13.133Z,67.96
2022-08-21T02:41:18.736Z,67.90
2022-08-21T02:42:20.642Z,68.57
2022-08-21T02:43:25.760Z,67.93
2022-08-21T02:44:30.214Z,67.95
2022-08-21T02:45:38.782Z,67.97
2022-08-21T02:46:40.732Z,68.48
2022-08-21T02:47:50.256Z,67.91
2022-08-21T02:48:52.350Z,68.35
2022-08-21T02:49:55.498Z,68.27
2022-08-21T02:50:59.260Z,68.31
2022-08-21T02:52:02.330Z,67.97
2022-08-21T02:53:04.876Z,68.02
2022-08-21T02:54:09.132Z,68.32
2022-08-21T02:55:12.724Z,68.00
2022-08-21T02:56:19.116Z,68.48
2022-08-21T02:57:21.249Z,68.02
2022-08-21T02:58:28.513Z,67.86
2022-08-21T02:59:30.503Z,68.12
2022-08-21T03:00:34.529Z,68.22
2022-08-21T03:01:37.439Z,68.21
2022-08-21T03:02:40.504Z,68.06
2022-08-21T03:03:44.065Z,67.49
2022-08-21T03:04:47.008Z,68.21
2022-08-21T03:05:49.815Z,68.23
2022-08-21T03:06:53.094Z,67.68
2022-08-21T03:07:55.572Z,68.02
2022-08-21T03:08:58.525Z,67.50
2022-08-21T03:10:00.522Z,67.45
2022-08-21T03:11:05.726Z,67.70
2022-08-21T03:12:09.620Z,67.60
2022-08-21T03:13:13.804Z,68.09
2022-08-21T03:14:15.945Z,68.12
2022-08-21T03:15:21.382Z,67.65
2022-08-21T03:16:23.333Z,67.68
2022-08-21T03:17:29.420Z,67.85
2022-08-21T03:18:32.010Z,68.09
2022-08-21T03:19:35.064Z,67.49
2022-08-21T03:20:38.355Z,68.24
2022-08-21T03:21:41.509Z,68.07
2022-08-21T03:22:45.673Z,68.22
2022-08-21T03:23:56.152Z,67.97
2022-08-21T03:24:58.292Z,67.84
2022-08-21T03:26:01.250Z,68.08
2022-08-21T03:27:04.936Z,67.68
2022-08-21T03:28:14.705Z,67.61
2022-08-21T03:29:17.806Z,68.15
2022-08-21T03:30:21.722Z,67.96
2022-08-21T03:31:24.815Z,68.30
2022-08-21T03:32:27.178Z,67.52
2022-08-21T03:33:30.109Z,67.63
2022-08-21T03:34:32.088Z,67.69
2022-08-21T03:35:35.073Z,67.73
2022-08-21T03:36:38.274Z,67.60
2022-08-21T03:37:40.642Z,67.93
2022-08-21T03:38:43.705Z,67.80
2022-08-21T03:39:45.962Z,67.96
2022-08-21T03:40:49.163Z,67.43
2022-08-21T03:41:51.050Z,68.28
2022-08-21T03:42:55.386Z,68.06
2022-08-21T03:43:57.473Z,67.66
2022-08-21T03:45:00.509Z,67.94
2022-08-21T03:46:05.446Z,68.05
2022-08-21T03:47:07.484Z,67.68
2022-08-21T03:48:11.084Z,68.02
2022-08-21T03:49:15.664Z,67.77
2022-08-21T03:50:19.163Z,67.64
2022-08-21T03:51:21.107Z,67.44
2022-08-21T03:52:24.433Z,67.66
2022-08-21T03:53:26.410Z,67.88
2022-08-21T03:54:29.377Z,68.31
2022-08-21T03:55:32.011Z,67.87
2022-08-21T03:56:36.284Z,68.08
2022-08-21T03:57:38.268Z,68.19
2022-08-21T03:58:42.587Z,67.77
2022-08-21T03:59:44.524Z,67.66
2022-08-21T04:00:48.475Z,67.35
2022-08-21T04:01:54.839Z,67.86
2022-08-21T04:02:57.927Z,68.38
2022-08-21T04:04:01.313Z,67.99
2022-08-21T04:05:04.074Z,67.36
2022-08-21T04:06:08.314Z,68.21
2022-08-21T04:07:10.369Z,67.70
2022-08-21T04:08:14.021Z,67.84
2022-08-21T04:09:15.959Z,68.13
2022-08-21T04:10:19.065Z,67.57
2022-08-21T04:11:22.105Z,67.83
2022-08-21T04:12:24.783Z,68.27
2022-08-21T04:13:29.123Z,67.62
2022-08-21T04:14:32.630Z,67.48
2022-08-21T04:15:36.427Z,68.21
2022-08-21T04:16:38.485Z,67.57
2022-08-21T04:17:41.457Z,67.86
2022-08-21T04:18:43.740Z,68.23
2022-08-21T04:19:49.384Z,67.62
2022-08-21T04:20:58.026Z,68.17
2022-08-21T04:22:00.479Z,67.60
2022-08-21T04:23:04.119Z,68.05
2022-08-21T04:24:06.952Z,68.05
2022-08-21T04:25:10.330Z,67.24
2022-08-21T04:26:12.402Z,67.94
2022-08-21T04:27:15.308Z,68.08
2022-08-21T04:28:18.327Z,67.29
2022-08-21T04:29:20.884Z,67.57
2022-08-21T04:30:28.134Z,67.90
2022-08-21T04:31:30.817Z,67.64
2022-08-21T04:32:33.771Z,68.17
2022-08-21T04:33:36.000Z,67.29
2022-08-21T04:34:38.952Z,68.20
2022-08-21T04:35:41.457Z,67.86
2022-08-21T04:36:44.412Z,67.78
2022-08-21T04:37:46.430Z,67.42
2022-08-21T04:38:49.569Z,67.48
2022-08-21T04:39:53.536Z,67.92
2022-08-21T04:40:56.827Z,67.90
2022-08-21T04:41:58.805Z,67.60
2022-08-21T04:43:06.446Z,67.67
2022-08-21T04:44:09.490Z,67.45
2022-08-21T04:45:18.079Z,67.86
2022-08-21T04:46:22.481Z,67.41
2022-08-21T04:47:25.080Z,68.02
2022-08-21T04:48:48.027Z,67.41
2022-08-21T04:49:50.354Z,68.11
2022-08-21T04:50:59.771Z,67.99
2022-08-21T04:52:02.741Z,67.98
2022-08-21T04:53:07.434Z,67.79
2022-08-21T04:54:13.650Z,67.40
2022-08-21T04:55:18.795Z,67.38
2022-08-21T04:56:23.652Z,68.02
2022-08-21T04:57:39.685Z,67.88
2022-08-21T04:58:53.198Z,67.17
2022-08-21T04:59:55.228Z,67.43
2022-08-21T05:01:02.461Z,67.75
2022-08-21T05:02:06.935Z,67.36
2022-08-21T05:03:11.837Z,67.23
2022-08-21T05:04:17.952Z,67.36
2022-08-21T05:05:21.333Z,67.43
2022-08-21T05:06:25.047Z,67.67
2022-08-21T05:07:41.961Z,67.65
2022-08-21T05:08:49.576Z,67.34
2022-08-21T05:09:52.698Z,67.30
2022-08-21T05:11:00.272Z,67.45
2022-08-21T05:12:04.036Z,67.42
2022-08-21T05:13:08.694Z,66.73
2022-08-21T05:14:10.780Z,66.92
2022-08-21T05:15:14.857Z,66.02
2022-08-21T05:16:17.176Z,66.28
2022-08-21T05:17:41.952Z,65.97
2022-08-21T05:18:44.001Z,65.78
2022-08-21T05:19:46.978Z,65.53
2022-08-21T05:20:48.819Z,65.66
2022-08-21T05:21:51.921Z,65.02
2022-08-21T05:22:53.823Z,65.10
2022-08-21T05:23:56.735Z,64.86
2022-08-21T05:24:59.248Z,64.83
2022-08-21T05:26:03.314Z,64.39
2022-08-21T05:27:07.806Z,64.36
2022-08-21T05:28:12.399Z,64.36
2022-08-21T05:29:16.405Z,64.17
2022-08-21T05:30:19.958Z,64.00
2022-08-21T05:31:21.986Z,63.65
2022-08-21T05:32:25.026Z,63.84
2022-08-21T05:33:28.391Z,63.06
2022-08-21T05:34:31.513Z,63.33
2022-08-21T05:35:34.477Z,63.38
2022-08-21T05:36:37.605Z,62.96
2022-08-21T05:37:39.469Z,63.25
2022-08-21T05:38:42.760Z,62.75
2022-08-21T05:40:05.069Z,63.53
2022-08-21T05:41:08.355Z,62.78
2022-08-21T05:42:10.340Z,63.50
2022-08-21T05:43:13.365Z,62.97
2022-08-21T05:44:15.422Z,63.34
2022-08-21T05:45:18.726Z,63.82
2022-08-21T05:46:42.621Z,62.60
2022-08-21T05:47:44.619Z,62.67
2022-08-21T05:48:48.891Z,62.90
2022-08-21T05:49:50.918Z,62.70
2022-08-21T05:50:55.351Z,62.66
2022-08-21T05:51:57.448Z,63.53
2022-08-21T05:53:07.054Z,63.82
2022-08-21T05:54:10.346Z,63.05
2022-08-21T05:55:12.384Z,63.82
2022-08-21T05:56:16.015Z,63.17
2022-08-21T05:57:17.927Z,62.76
2022-08-21T05:58:23.802Z,62.84
2022-08-21T05:59:25.709Z,62.87
2022-08-21T06:00:28.829Z,62.64
2022-08-21T06:01:31.693Z,62.87
2022-08-21T06:02:34.739Z,63.04
2022-08-21T06:03:38.661Z,62.84
2022-08-21T06:04:43.260Z,62.55
2022-08-21T06:05:46.708Z,62.03
2022-08-21T06:06:49.841Z,63.00
2022-08-21T06:07:52.397Z,62.83
2022-08-21T06:08:55.404Z,62.36
2022-08-21T06:09:57.508Z,62.50
2022-08-21T06:11:02.451Z,62.85
2022-08-21T06:12:06.033Z,62.71
2022-08-21T06:13:09.174Z,62.70
2022-08-21T06:14:11.259Z,62.79
2022-08-21T06:15:14.298Z,62.45
2022-08-21T06:16:17.482Z,62.70
2022-08-21T06:17:20.999Z,62.04
2022-08-21T06:18:22.906Z,62.14
2022-08-21T06:19:25.855Z,62.51
2022-08-21T06:20:29.319Z,62.82
2022-08-21T06:21:32.464Z,62.35
2022-08-21T06:22:35.217Z,62.66
2022-08-21T06:23:38.290Z,62.54
2022-08-21T06:24:40.512Z,62.38
2022-08-21T06:25:43.651Z,62.10
2022-08-21T06:26:45.609Z,61.65
2022-08-21T06:27:48.598Z,60.64
2022-08-21T06:28:51.881Z,60.95
2022-08-21T06:29:54.077Z,61.04
2022-08-21T06:30:57.036Z,61.11
2022-08-21T06:31:58.955Z,61.30
2022-08-21T06:33:02.568Z,61.49
2022-08-21T06:34:04.871Z,61.41
2022-08-21T06:35:08.761Z,61.57
2022-08-21T06:36:12.121Z,61.74
2022-08-21T06:37:15.048Z,61.62
2022-08-21T06:38:16.988Z,61.58
2022-08-21T06:39:24.834Z,61.50
2022-08-21T06:40:35.061Z,61.53
2022-08-21T06:41:39.144Z,61.38
2022-08-21T06:42:42.964Z,61.35
2022-08-21T06:43:46.748Z,61.27
2022-08-21T06:44:50.451Z,60.89
2022-08-21T06:45:53.389Z,61.50
2022-08-21T06:46:55.288Z,61.32
2022-08-21T06:47:58.303Z,60.98
2022-08-21T06:49:00.343Z,60.84
2022-08-21T06:50:03.688Z,61.13
2022-08-21T06:51:05.918Z,61.18
2022-08-21T06:52:13.813Z,61.33
2022-08-21T06:53:19.222Z,60.96
2022-08-21T06:54:22.715Z,60.86
2022-08-21T06:55:29.076Z,60.72
2022-08-21T06:56:34.379Z,61.01
2022-08-21T06:57:36.742Z,60.79
2022-08-21T06:58:39.799Z,61.02
2022-08-21T06:59:41.894Z,61.06
2022-08-21T07:00:47.905Z,60.95
2022-08-21T07:01:50.548Z,61.08
2022-08-21T07:02:53.620Z,61.63
2022-08-21T07:03:55.798Z,61.75
2022-08-21T07:05:00.133Z,61.15
2022-08-21T07:06:03.601Z,61.41
2022-08-21T07:07:05.867Z,61.20
2022-08-21T07:08:10.313Z,60.50
2022-08-21T07:09:12.824Z,60.67
2022-08-21T07:10:21.725Z,60.61
2022-08-21T07:11:25.641Z,60.75
2022-08-21T07:12:29.199Z,60.64
2022-08-21T07:13:31.216Z,60.83
2022-08-21T07:14:34.220Z,60.73
2022-08-21T07:15:36.231Z,60.71
2022-08-21T07:16:39.173Z,60.40
2022-08-21T07:17:44.709Z,61.10
2022-08-21T07:18:49.441Z,60.81
2022-08-21T07:19:52.480Z,60.83
2022-08-21T07:20:56.740Z,60.58
2022-08-21T07:22:02.016Z,60.52
2022-08-21T07:23:08.327Z,60.17
2022-08-21T07:24:11.808Z,60.10
2022-08-21T07:25:14.847Z,60.63
2022-08-21T07:26:19.215Z,60.36
2022-08-21T07:27:22.323Z,60.96
2022-08-21T07:28:24.265Z,60.58
2022-08-21T07:29:27.361Z,60.81
2022-08-21T07:30:29.728Z,60.37
2022-08-21T07:31:33.339Z,60.43
2022-08-21T07:32:35.305Z,60.49
2022-08-21T07:33:38.432Z,60.82
2022-08-21T07:34:40.389Z,60.58
2022-08-21T07:35:43.333Z,60.42
2022-08-21T07:36:45.487Z,60.66
2022-08-21T07:37:49.357Z,60.35
2022-08-21T07:38:52.667Z,60.40
2022-08-21T07:39:57.631Z,60.25
2022-08-21T07:41:01.483Z,60.54
2022-08-21T07:42:08.185Z,59.87
2022-08-21T07:43:10.683Z,59.10
2022-08-21T07:44:13.698Z,58.81
2022-08-21T07:45:16.589Z,58.84
2022-08-21T07:46:19.744Z,58.93
2022-08-21T07:47:41.822Z,58.19
2022-08-21T07:48:45.200Z,58.00
2022-08-21T07:49:48.399Z,58.62
2022-08-21T07:50:52.071Z,59.10
2022-08-21T07:51:55.945Z,59.37
2022-08-21T07:52:58.049Z,59.41
2022-08-21T07:54:02.856Z,59.96
2022-08-21T07:55:08.351Z,59.83
2022-08-21T07:56:12.381Z,59.40
2022-08-21T07:57:14.407Z,59.80
2022-08-21T07:58:21.749Z,59.95
2022-08-21T07:59:23.814Z,59.78
2022-08-21T08:00:28.713Z,59.61
2022-08-21T08:01:31.608Z,59.67
2022-08-21T08:02:34.565Z,60.01
2022-08-21T08:03:36.595Z,59.06
2022-08-21T08:04:50.983Z,59.21
2022-08-21T08:05:54.185Z,59.38
2022-08-21T08:06:56.130Z,58.86
2022-08-21T08:07:59.158Z,59.10
2022-08-21T08:09:03.715Z,59.68
2022-08-21T08:10:10.046Z,60.15
2022-08-21T08:11:16.171Z,60.18
2022-08-21T08:12:18.611Z,59.98
2022-08-21T08:13:21.856Z,59.62
2022-08-21T08:14:31.402Z,59.46
2022-08-21T08:15:37.643Z,58.78
2022-08-21T08:16:40.119Z,59.38
2022-08-21T08:17:43.416Z,59.30
2022-08-21T08:18:45.796Z,60.28
2022-08-21T08:19:49.445Z,60.08
2022-08-21T08:20:51.436Z,60.26
2022-08-21T08:21:54.592Z,60.94
2022-08-21T08:22:56.669Z,59.78
2022-08-21T08:23:59.644Z,59.63
2022-08-21T08:25:24.860Z,59.94
2022-08-21T08:26:29.112Z,60.16
2022-08-21T08:27:31.109Z,60.62
2022-08-21T08:28:35.187Z,60.63
2022-08-21T08:29:37.217Z,60.39
2022-08-21T08:30:40.135Z,59.95
2022-08-21T08:31:42.696Z,59.12
2022-08-21T08:32:46.194Z,60.01
2022-08-21T08:33:48.145Z,60.25
2022-08-21T08:34:52.611Z,61.25
2022-08-21T08:35:54.906Z,61.04
2022-08-21T08:36:58.897Z,61.29
2022-08-21T08:38:01.057Z,61.65
2022-08-21T08:39:05.514Z,61.25
2022-08-21T08:40:12.414Z,61.25
2022-08-21T08:41:19.929Z,61.79
2022-08-21T08:42:33.733Z,61.09
2022-08-21T08:43:36.887Z,60.46
2022-08-21T08:44:40.121Z,60.96
2022-08-21T08:45:47.982Z,60.20
2022-08-21T08:46:53.671Z,60.32
2022-08-21T08:48:03.612Z,59.96
2022-08-21T08:49:13.619Z,60.20
2022-08-21T08:50:22.500Z,60.29
2022-08-21T08:51:29.953Z,60.29
2022-08-21T08:52:35.869Z,60.06
2022-08-21T08:53:49.329Z,60.13
2022-08-21T08:55:02.301Z,60.19
2022-08-21T08:56:07.418Z,59.81
2022-08-21T08:57:18.004Z,60.62
2022-08-21T08:58:25.196Z,60.79
2022-08-21T08:59:36.997Z,60.07
2022-08-21T09:00:40.342Z,60.03
2022-08-21T09:01:43.536Z,60.07
2022-08-21T09:02:48.606Z,59.85
2022-08-21T09:03:52.849Z,60.62
2022-08-21T09:04:56.024Z,60.13
2022-08-21T09:06:14.012Z,60.25
2022-08-21T09:07:27.516Z,60.29
2022-08-21T09:08:44.557Z,60.36
2022-08-21T09:10:01.460Z,60.74
2022-08-21T09:11:06.014Z,60.75
2022-08-21T09:12:17.192Z,60.74
2022-08-21T09:13:25.390Z,61.02
2022-08-21T09:14:38.546Z,61.99
2022-08-21T09:15:52.439Z,61.01
2022-08-21T09:17:01.905Z,61.42
2022-08-21T09:18:20.848Z,61.34
2022-08-21T09:19:38.453Z,61.14
2022-08-21T09:20:48.432Z,61.26
2022-08-21T09:22:00.621Z,61.63
2022-08-21T09:23:18.927Z,61.42
2022-08-21T09:24:31.937Z,61.38
2022-08-21T09:25:41.227Z,61.39
2022-08-21T09:26:51.058Z,62.34
2022-08-21T09:27:55.707Z,61.97
2022-08-21T09:29:01.604Z,62.18
2022-08-21T09:30:08.981Z,62.10
2022-08-21T09:31:22.909Z,61.78
2022-08-21T09:32:36.934Z,61.62
2022-08-21T09:33:39.323Z,62.43
2022-08-21T09:34:42.331Z,62.61
2022-08-21T09:35:53.071Z,62.55
2022-08-21T09:36:56.086Z,62.30
2022-08-21T09:38:02.199Z,62.41
2022-08-21T09:39:06.451Z,62.33
2022-08-21T09:40:24.857Z,62.52
2022-08-21T09:41:29.464Z,62.42
2022-08-21T09:42:34.212Z,62.62
2022-08-21T09:43:40.368Z,62.43
2022-08-21T09:44:44.882Z,62.10
2022-08-21T09:45:49.498Z,62.54
2022-08-21T09:46:53.553Z,62.65
2022-08-21T09:47:56.143Z,62.64
2022-08-21T09:49:02.061Z,62.92
2022-08-21T09:50:13.667Z,62.57
2022-08-21T09:51:18.975Z,62.71
2022-08-21T09:52:24.270Z,62.63
2022-08-21T09:53:35.493Z,62.87
2022-08-21T09:54:42.166Z,62.64
2022-08-21T09:56:09.224Z,62.75
2022-08-21T09:57:35.621Z,62.78
2022-08-21T09:58:42.646Z,62.35
2022-08-21T09:59:49.979Z,62.65
2022-08-21T10:00:59.538Z,62.57
2022-08-21T10:02:06.029Z,62.46
2022-08-21T10:03:15.458Z,62.67
2022-08-21T10:04:23.613Z,62.52
2022-08-21T10:05:28.032Z,62.76
2022-08-21T10:06:31.623Z,62.40
2022-08-21T10:07:39.224Z,62.43
2022-08-21T10:08:43.504Z,62.23
2022-08-21T10:09:45.537Z,62.34
2022-08-21T10:10:56.412Z,62.57
2022-08-21T10:12:18.815Z,62.21
2022-08-21T10:13:28.018Z,62.47
2022-08-21T10:14:53.042Z,62.13
2022-08-21T10:16:10.526Z,62.10
2022-08-21T10:17:19.355Z,61.79
2022-08-21T10:18:40.692Z,62.10
2022-08-21T10:19:54.483Z,61.66
2022-08-21T10:21:06.526Z,61.37
2022-08-21T10:22:24.594Z,61.47
2022-08-21T10:23:39.836Z,61.63
2022-08-21T10:25:00.036Z,62.75
2022-08-21T10:26:14.063Z,62.69
2022-08-21T10:27:24.819Z,62.74
2022-08-21T10:28:38.076Z,63.03
2022-08-21T10:29:48.653Z,62.88
2022-08-21T10:30:57.116Z,62.94
2022-08-21T10:32:22.401Z,62.92
2022-08-21T10:33:43.910Z,62.93
2022-08-21T10:34:54.624Z,63.09
2022-08-21T10:36:04.823Z,62.50
2022-08-21T10:37:19.616Z,62.63
2022-08-21T10:39:12.102Z,63.23
2022-08-21T10:40:24.132Z,62.70
2022-08-21T10:41:39.375Z,62.35
2022-08-21T10:42:54.497Z,61.65
2022-08-21T10:44:08.909Z,62.05
2022-08-21T10:45:23.106Z,61.46
2022-08-21T10:46:39.145Z,61.45
2022-08-21T10:47:48.719Z,60.60
2022-08-21T10:48:55.985Z,60.84
2022-08-21T10:50:12.908Z,60.68
2022-08-21T10:51:29.022Z,61.87
2022-08-21T10:52:45.472Z,61.64
2022-08-21T10:53:56.936Z,61.58
2022-08-21T10:55:05.531Z,62.89
2022-08-21T10:56:16.946Z,62.31
2022-08-21T10:57:32.156Z,61.73
2022-08-21T10:58:42.335Z,61.19
2022-08-21T10:59:55.010Z,61.08
2022-08-21T11:01:07.262Z,61.07
2022-08-21T11:02:16.423Z,61.23
2022-08-21T11:03:25.626Z,60.87
2022-08-21T11:04:44.619Z,60.91
2022-08-21T11:05:56.383Z,61.48
2022-08-21T11:07:07.129Z,61.07
2022-08-21T11:08:25.925Z,60.96
2022-08-21T11:09:32.234Z,60.04
2022-08-21T11:10:40.888Z,59.55
2022-08-21T11:12:08.881Z,59.36
2022-08-21T11:13:20.098Z,60.84
2022-08-21T11:14:32.671Z,60.97
2022-08-21T11:15:42.215Z,56.64
2022-08-21T11:16:50.472Z,56.67
2022-08-21T11:18:02.444Z,58.13
2022-08-21T11:19:15.684Z,58.53
2022-08-21T11:20:29.077Z,57.03
2022-08-21T11:21:40.169Z,57.74
2022-08-21T11:22:54.529Z,57.94
2022-08-21T11:24:05.996Z,58.17
2022-08-21T11:25:18.303Z,58.09
2022-08-21T11:26:37.108Z,58.08
2022-08-21T11:27:44.353Z,58.17
2022-08-21T11:28:54.667Z,59.38
2022-08-21T11:29:59.005Z,58.35
2022-08-21T11:31:21.247Z,59.04
2022-08-21T11:32:46.535Z,59.60
2022-08-21T11:34:04.007Z,59.36
2022-08-21T11:35:15.663Z,58.62
2022-08-21T11:36:34.813Z,58.85
2022-08-21T11:37:51.209Z,59.68
2022-08-21T11:39:00.554Z,59.75
2022-08-21T11:40:12.305Z,60.00
2022-08-21T11:41:37.528Z,59.91
2022-08-21T11:42:48.278Z,60.18
2022-08-21T11:43:57.426Z,59.87
2022-08-21T11:45:14.667Z,58.92
2022-08-21T11:46:30.390Z,58.43
2022-08-21T11:47:52.012Z,58.71
2022-08-21T11:49:06.441Z,58.23
2022-08-21T11:50:34.450Z,58.04
2022-08-21T11:51:43.504Z,58.07
2022-08-21T11:52:52.663Z,58.35
2022-08-21T11:54:07.291Z,58.54
2022-08-21T11:55:15.904Z,58.61
2022-08-21T11:56:26.118Z,59.61
2022-08-21T11:57:33.141Z,58.05
2022-08-21T11:58:41.899Z,56.49
2022-08-21T11:59:50.799Z,57.40
2022-08-21T12:00:57.933Z,58.47
2022-08-21T12:02:00.951Z,58.65
2022-08-21T12:03:13.447Z,57.27
2022-08-21T12:04:23.640Z,57.57
2022-08-21T12:05:36.102Z,57.57
2022-08-21T12:06:40.321Z,58.81
2022-08-21T12:07:45.179Z,58.32
2022-08-21T12:08:59.285Z,58.12
2022-08-21T12:10:06.345Z,57.92
2022-08-21T12:11:11.020Z,58.02
2022-08-21T12:12:26.392Z,58.44
2022-08-21T12:13:40.148Z,57.43
2022-08-21T12:14:46.424Z,57.38
2022-08-21T12:15:49.378Z,56.47
2022-08-21T12:16:51.678Z,55.97
2022-08-21T12:17:58.629Z,56.44
2022-08-21T12:19:08.876Z,56.49
2022-08-21T12:20:19.353Z,55.84
2022-08-21T12:21:25.657Z,57.31
2022-08-21T12:22:39.049Z,56.04
2022-08-21T12:23:47.744Z,56.48
2022-08-21T12:24:51.204Z,55.08
2022-08-21T12:26:19.500Z,56.27
2022-08-21T12:27:28.368Z,55.63
2022-08-21T12:28:31.996Z,57.01
2022-08-21T12:29:38.183Z,56.63
2022-08-21T12:30:44.312Z,56.75
2022-08-21T12:31:56.489Z,56.58
2022-08-21T12:33:03.048Z,53.72
2022-08-21T12:34:11.239Z,53.50
2022-08-21T12:35:24.610Z,54.82
2022-08-21T12:36:57.071Z,55.05
2022-08-21T12:38:07.501Z,56.59
2022-08-21T12:39:19.321Z,55.82
2022-08-21T12:40:27.413Z,55.63
2022-08-21T12:41:34.176Z,55.04
2022-08-21T12:42:43.081Z,54.49
2022-08-21T12:43:49.981Z,54.91
2022-08-21T12:44:56.123Z,54.36
2022-08-21T12:46:01.472Z,54.06
2022-08-21T12:47:07.765Z,54.51
2022-08-21T12:48:15.242Z,54.46
2022-08-21T12:49:28.435Z,53.79
2022-08-21T12:50:37.176Z,53.92
2022-08-21T12:51:50.894Z,53.76
2022-08-21T12:53:00.474Z,53.43
2022-08-21T12:54:03.486Z,54.53
2022-08-21T12:55:06.638Z,53.90
2022-08-21T12:56:13.395Z,52.75
2022-08-21T12:57:20.976Z,53.96
2022-08-21T12:58:26.714Z,54.79
2022-08-21T12:59:29.500Z,54.22
2022-08-21T13:00:33.340Z,54.32
2022-08-21T13:01:41.531Z,53.06
2022-08-21T13:02:50.277Z,53.87
2022-08-21T13:03:58.848Z,51.98
2022-08-21T13:05:14.742Z,51.55
2022-08-21T13:06:19.362Z,52.59
2022-08-21T13:07:29.045Z,52.68
2022-08-21T13:08:31.618Z,52.58
2022-08-21T13:09:34.561Z,52.17
2022-08-21T13:10:38.681Z,53.54
2022-08-21T13:11:42.191Z,52.79
2022-08-21T13:12:46.366Z,53.42
2022-08-21T13:13:51.101Z,53.72
2022-08-21T13:14:59.921Z,54.50
2022-08-21T13:16:08.638Z,54.76
2022-08-21T13:17:12.663Z,55.40
2022-08-21T13:18:24.344Z,55.64
2022-08-21T13:19:27.401Z,55.75
2022-08-21T13:20:34.045Z,54.46
2022-08-21T13:21:42.584Z,53.71
2022-08-21T13:22:46.577Z,55.07
2022-08-21T13:23:49.232Z,53.63
2022-08-21T13:24:52.531Z,53.97
2022-08-21T13:25:55.149Z,53.68
2022-08-21T13:26:58.792Z,52.77
2022-08-21T13:28:06.741Z,53.87
2022-08-21T13:29:11.879Z,53.98
2022-08-21T13:30:21.294Z,53.07
2022-08-21T13:31:28.970Z,53.56
2022-08-21T13:32:33.735Z,53.09
2022-08-21T13:33:37.525Z,52.65
2022-08-21T13:34:40.016Z,54.13
2022-08-21T13:35:53.347Z,53.30
2022-08-21T13:36:58.653Z,52.42
2022-08-21T13:38:03.262Z,52.53
2022-08-21T13:39:05.989Z,53.45
2022-08-21T13:40:12.313Z,53.85
2022-08-21T13:41:23.480Z,51.73
2022-08-21T13:42:25.501Z,52.53
2022-08-21T13:43:33.011Z,53.02
2022-08-21T13:44:37.944Z,53.65
2022-08-21T13:45:40.796Z,53.06
2022-08-21T13:46:43.822Z,53.16
2022-08-21T13:47:49.315Z,53.34
2022-08-21T13:48:51.674Z,53.51
2022-08-21T13:49:59.110Z,54.06
2022-08-21T13:51:03.801Z,53.99
2022-08-21T13:52:15.606Z,54.25
2022-08-21T13:53:23.942Z,53.43
2022-08-21T13:54:29.611Z,54.06
2022-08-21T13:55:40.835Z,54.21
2022-08-21T13:56:46.327Z,54.00
2022-08-21T13:57:48.268Z,53.92
2022-08-21T13:58:51.292Z,53.19
2022-08-21T13:59:53.227Z,52.63
2022-08-21T14:00:57.706Z,52.85
2022-08-21T14:02:03.634Z,52.62
2022-08-21T14:03:09.913Z,53.07
2022-08-21T14:04:20.921Z,53.80
2022-08-21T14:05:28.293Z,53.74
2022-08-21T14:06:40.367Z,53.02
2022-08-21T14:07:44.156Z,53.35
2022-08-21T14:08:52.216Z,52.87
2022-08-21T14:09:55.208Z,53.52
2022-08-21T14:10:58.968Z,53.73
2022-08-21T14:12:13.580Z,53.42